createdAt,value
2023-03-26T00:01:15.575Z,11.72
2023-03-26T00:03:44.862Z,11.73
2023-03-26T00:06:14.103Z,11.53
2023-03-26T00:08:42.368Z,11.59
2023-03-26T00:11:11.941Z,11.71
2023-03-26T00:13:39.362Z,11.87
2023-03-26T00:16:06.401Z,11.96
2023-03-26T00:18:35.060Z,11.85
2023-03-26T00:21:05.375Z,11.94
2023-03-26T00:23:33.949Z,11.94
2023-03-26T00:26:02.786Z,11.90
2023-03-26T00:28:31.638Z,12.02
2023-03-26T00:31:01.151Z,12.05
2023-03-26T00:33:28.461Z,12.16
2023-03-26T00:35:56.944Z,12.22
2023-03-26T00:38:24.192Z,12.27
2023-03-26T00:40:52.280Z,12.25
2023-03-26T00:43:20.255Z,12.32
2023-03-26T00:45:51.404Z,12.37
2023-03-26T00:48:18.360Z,12.39
2023-03-26T00:50:46.380Z,12.42
2023-03-26T00:53:14.180Z,12.38
2023-03-26T00:55:42.013Z,12.39
2023-03-26T00:58:10.301Z,12.27
2023-03-26T01:00:43.813Z,12.31
2023-03-26T01:03:26.946Z,12.34
2023-03-26T01:06:02.692Z,12.43
2023-03-26T01:08:45.122Z,12.42
2023-03-26T01:11:18.507Z,12.41
2023-03-26T01:13:51.555Z,12.41
2023-03-26T01:16:25.185Z,12.39
2023-03-26T01:18:53.924Z,12.38
2023-03-26T01:21:28.740Z,12.29
2023-03-26T01:23:57.740Z,12.30
2023-03-26T01:26:37.800Z,12.23
2023-03-26T01:29:08.399Z,12.28
2023-03-26T01:31:51.158Z,12.30
2023-03-26T01:34:30.791Z,12.28
2023-03-26T01:37:21.025Z,12.26
2023-03-26T01:39:53.350Z,12.24
2023-03-26T01:42:27.980Z,12.31
2023-03-26T01:45:04.499Z,12.31
2023-03-26T01:47:31.850Z,12.25
2023-03-26T01:49:58.402Z,12.41
2023-03-26T01:52:26.216Z,12.44
2023-03-26T01:54:55.020Z,12.48
2023-03-26T01:57:41.226Z,12.49
2023-03-26T02:00:28.553Z,12.56
2023-03-26T02:03:28.240Z,12.55
2023-03-26T02:06:04.640Z,12.40
2023-03-26T02:08:36.044Z,12.38
2023-03-26T02:11:06.009Z,12.35
2023-03-26T02:13:32.691Z,12.31
2023-03-26T02:16:04.513Z,12.28
2023-03-26T02:18:36.458Z,12.27
2023-03-26T02:21:05.256Z,12.27
2023-03-26T02:23:35.735Z,12.26
2023-03-26T02:26:06.858Z,12.33
2023-03-26T02:28:33.548Z,12.35
2023-03-26T02:31:01.953Z,12.33
2023-03-26T02:33:29.504Z,11.99
2023-03-26T02:36:02.062Z,11.99
2023-03-26T02:38:30.372Z,12.06
2023-03-26T02:40:56.959Z,12.12
2023-03-26T02:43:23.683Z,12.14
2023-03-26T02:45:50.335Z,11.94
2023-03-26T02:48:17.023Z,11.87
2023-03-26T02:50:44.432Z,11.85
2023-03-26T02:53:11.959Z,11.77
2023-03-26T02:55:38.574Z,11.74
2023-03-26T02:58:06.336Z,11.78
2023-03-26T03:00:33.715Z,11.68
2023-03-26T03:03:00.351Z,11.53
2023-03-26T03:05:27.004Z,11.59
2023-03-26T03:07:58.225Z,11.65
2023-03-26T03:10:27.679Z,11.64
2023-03-26T03:12:54.552Z,11.69
2023-03-26T03:15:21.498Z,11.70
2023-03-26T03:17:48.094Z,11.69
2023-03-26T03:20:15.610Z,11.54
2023-03-26T03:22:42.415Z,11.67
2023-03-26T03:25:14.265Z,11.63
2023-03-26T03:27:42.944Z,11.62
2023-03-26T03:30:12.353Z,11.67
2023-03-26T03:32:39.118Z,11.56
2023-03-26T03:35:06.062Z,11.54
2023-03-26T03:37:32.632Z,11.49
2023-03-26T03:39:59.278Z,11.35
2023-03-26T03:42:27.453Z,11.29
2023-03-26T03:44:54.077Z,11.43
2023-03-26T03:47:21.166Z,11.44
2023-03-26T03:49:47.709Z,11.46
2023-03-26T03:52:14.301Z,11.45
2023-03-26T03:54:41.033Z,11.44
2023-03-26T03:57:07.679Z,11.34
2023-03-26T03:59:34.322Z,11.24
2023-03-26T04:02:00.992Z,11.26
2023-03-26T04:04:27.725Z,11.21
2023-03-26T04:06:54.363Z,11.18
2023-03-26T04:09:20.948Z,11.20
2023-03-26T04:11:47.502Z,11.24
2023-03-26T04:14:14.056Z,11.28
2023-03-26T04:16:40.792Z,11.28
2023-03-26T04:19:08.507Z,11.34
2023-03-26T04:21:37.824Z,11.39
2023-03-26T04:24:05.106Z,11.37
2023-03-26T04:26:31.820Z,11.30
2023-03-26T04:29:04.748Z,11.24
2023-03-26T04:31:31.995Z,11.30
2023-03-26T04:34:06.978Z,11.28
2023-03-26T04:36:34.392Z,11.36
2023-03-26T04:39:03.580Z,11.32
2023-03-26T04:41:30.270Z,11.32
2023-03-26T04:43:56.855Z,11.25
2023-03-26T04:46:24.091Z,11.14
2023-03-26T04:48:51.459Z,11.10
2023-03-26T04:51:22.006Z,11.14
2023-03-26T04:54:00.473Z,11.21
2023-03-26T04:56:38.293Z,11.10
2023-03-26T04:59:06.144Z,11.07
2023-03-26T05:01:33.230Z,11.09
2023-03-26T05:03:59.807Z,11.07
2023-03-26T05:06:28.749Z,11.12
2023-03-26T05:08:55.477Z,11.10
2023-03-26T05:11:22.115Z,11.17
2023-03-26T05:13:48.705Z,11.23
2023-03-26T05:16:15.413Z,11.18
2023-03-26T05:18:42.148Z,11.24
2023-03-26T05:21:08.759Z,11.27
2023-03-26T05:23:35.359Z,11.26
2023-03-26T05:26:02.027Z,11.36
2023-03-26T05:28:28.627Z,11.56
2023-03-26T05:30:55.510Z,11.63
2023-03-26T05:33:22.774Z,11.60
2023-03-26T05:36:03.785Z,11.76
2023-03-26T05:38:31.083Z,11.88
2023-03-26T05:41:06.265Z,11.98
2023-03-26T05:43:33.690Z,12.11
2023-03-26T05:46:00.358Z,12.31
2023-03-26T05:48:27.833Z,12.35
2023-03-26T05:50:56.240Z,12.50
2023-03-26T05:53:24.943Z,12.66
2023-03-26T05:55:58.327Z,12.80
2023-03-26T05:58:30.872Z,13.19
2023-03-26T06:01:08.655Z,13.59
2023-03-26T06:03:40.269Z,14.18
2023-03-26T06:06:09.302Z,14.54
2023-03-26T06:08:36.116Z,14.76
2023-03-26T06:11:07.302Z,15.20
2023-03-26T06:13:34.224Z,15.51
2023-03-26T06:16:00.876Z,15.55
2023-03-26T06:18:27.499Z,16.00
2023-03-26T06:20:54.412Z,16.20
2023-03-26T06:23:21.469Z,16.18
2023-03-26T06:25:48.082Z,16.65
2023-03-26T06:28:15.867Z,16.92
2023-03-26T06:30:42.592Z,17.11
2023-03-26T06:33:09.521Z,17.58
2023-03-26T06:35:37.354Z,17.27
2023-03-26T06:38:04.593Z,17.53
2023-03-26T06:40:32.603Z,17.46
2023-03-26T06:43:08.174Z,17.28
2023-03-26T06:45:37.384Z,17.54
2023-03-26T06:48:04.608Z,18.31
2023-03-26T06:50:32.303Z,18.54
2023-03-26T06:52:58.939Z,18.51
2023-03-26T06:55:25.952Z,18.74
2023-03-26T06:57:54.563Z,18.49
2023-03-26T07:00:21.978Z,18.70
2023-03-26T07:02:48.549Z,19.09
2023-03-26T07:05:15.643Z,18.60
2023-03-26T07:07:46.239Z,18.47
2023-03-26T07:10:14.151Z,18.41
2023-03-26T07:12:42.511Z,17.52
2023-03-26T07:15:10.537Z,17.85
2023-03-26T07:17:37.473Z,18.06
2023-03-26T07:20:06.583Z,17.85
2023-03-26T07:22:33.879Z,18.28
2023-03-26T07:25:01.214Z,18.29
2023-03-26T07:27:36.950Z,18.41
2023-03-26T07:30:09.390Z,18.98
2023-03-26T07:32:48.142Z,18.59
2023-03-26T07:35:30.870Z,18.39
2023-03-26T07:38:38.289Z,18.68
2023-03-26T07:41:45.767Z,18.91
2023-03-26T07:44:43.496Z,19.56
2023-03-26T07:47:32.769Z,19.30
2023-03-26T07:49:59.761Z,19.46
2023-03-26T07:52:27.080Z,19.36
2023-03-26T07:54:53.764Z,19.72
2023-03-26T07:58:16.108Z,20.26
2023-03-26T08:00:55.907Z,20.27
2023-03-26T08:03:25.704Z,19.84
2023-03-26T08:06:20.369Z,20.07
2023-03-26T08:09:38.221Z,20.54
2023-03-26T08:12:48.495Z,21.03
2023-03-26T08:15:39.157Z,21.30
2023-03-26T08:18:27.207Z,20.98
2023-03-26T08:21:14.230Z,21.00
2023-03-26T08:24:09.879Z,20.31
2023-03-26T08:26:51.568Z,20.50
2023-03-26T08:29:51.629Z,20.49
2023-03-26T08:32:20.133Z,20.43
2023-03-26T08:34:46.876Z,20.81
2023-03-26T08:37:13.824Z,20.37
2023-03-26T08:39:42.105Z,20.49
2023-03-26T08:42:36.513Z,21.00
2023-03-26T08:45:21.862Z,20.72
2023-03-26T08:48:29.880Z,20.59
2023-03-26T08:51:10.549Z,20.84
2023-03-26T08:53:46.445Z,20.88
2023-03-26T08:56:50.657Z,20.62
2023-03-26T08:59:23.190Z,20.84
2023-03-26T09:02:17.318Z,21.44
2023-03-26T09:05:21.375Z,21.67
2023-03-26T09:08:06.171Z,21.94
2023-03-26T09:11:05.274Z,22.07
2023-03-26T09:14:09.568Z,22.29
2023-03-26T09:16:45.328Z,22.47
2023-03-26T09:19:49.646Z,22.08
2023-03-26T09:22:26.818Z,21.92
2023-03-26T09:24:53.314Z,22.62
2023-03-26T09:27:57.912Z,23.24
2023-03-26T09:30:39.346Z,22.82
2023-03-26T09:33:28.002Z,23.21
2023-03-26T09:36:35.230Z,23.85
2023-03-26T09:39:26.722Z,23.24
2023-03-26T09:42:23.116Z,23.54
2023-03-26T09:45:28.540Z,23.48
2023-03-26T09:47:57.819Z,23.16
2023-03-26T09:50:42.446Z,22.61
2023-03-26T09:53:17.907Z,22.30
2023-03-26T09:55:47.240Z,22.38
2023-03-26T09:58:28.762Z,22.09
2023-03-26T10:01:27.433Z,22.03
2023-03-26T10:03:58.339Z,21.52
2023-03-26T10:06:35.530Z,21.50
2023-03-26T10:09:09.060Z,21.68
2023-03-26T10:12:12.690Z,21.50
2023-03-26T10:15:11.160Z,21.38
2023-03-26T10:18:02.220Z,21.62
2023-03-26T10:20:55.073Z,21.10
2023-03-26T10:23:39.669Z,21.06
2023-03-26T10:26:22.629Z,20.68
2023-03-26T10:29:24.393Z,20.27
2023-03-26T10:32:13.544Z,20.23
2023-03-26T10:34:58.420Z,20.07
2023-03-26T10:37:43.503Z,20.23
2023-03-26T10:40:33.294Z,19.99
2023-03-26T10:43:21.252Z,20.00
2023-03-26T10:46:25.458Z,19.87
2023-03-26T10:49:04.435Z,20.30
2023-03-26T10:51:49.405Z,20.65
2023-03-26T10:54:34.287Z,20.93
2023-03-26T10:57:06.336Z,21.08
2023-03-26T10:59:33.051Z,21.12
2023-03-26T11:02:30.994Z,21.20
2023-03-26T11:05:21.274Z,21.02
2023-03-26T11:08:17.127Z,21.16
2023-03-26T11:10:56.331Z,21.24
2023-03-26T11:13:45.522Z,21.32
2023-03-26T11:16:17.884Z,21.25
2023-03-26T11:19:29.179Z,21.14
2023-03-26T11:22:03.708Z,20.90
2023-03-26T11:24:30.370Z,21.17
2023-03-26T11:27:15.754Z,21.24
2023-03-26T11:29:48.112Z,20.97
2023-03-26T11:32:17.605Z,20.90
2023-03-26T11:34:44.290Z,20.77
2023-03-26T11:37:26.102Z,20.86
2023-03-26T11:39:56.811Z,20.90
2023-03-26T11:42:25.783Z,21.00
2023-03-26T11:45:05.056Z,20.94
2023-03-26T11:47:46.636Z,21.06
2023-03-26T11:50:21.845Z,21.29
2023-03-26T11:52:48.458Z,21.44
2023-03-26T11:55:15.891Z,21.49
2023-03-26T11:57:49.130Z,21.58
2023-03-26T12:00:20.981Z,21.46
2023-03-26T12:02:48.767Z,21.21
2023-03-26T12:05:22.694Z,21.25
2023-03-26T12:07:54.101Z,21.36
2023-03-26T12:10:22.425Z,21.38
2023-03-26T12:12:49.346Z,21.46
2023-03-26T12:15:21.385Z,21.61
2023-03-26T12:17:53.641Z,21.55
2023-03-26T12:20:26.808Z,21.29
2023-03-26T12:22:59.213Z,21.02
2023-03-26T12:25:31.489Z,20.87
2023-03-26T12:28:03.044Z,20.96
2023-03-26T12:30:39.580Z,21.12
2023-03-26T12:33:07.730Z,21.09
2023-03-26T12:35:35.897Z,20.83
2023-03-26T12:38:33.711Z,20.48
2023-03-26T12:42:25.919Z,20.44
2023-03-26T12:44:47.906Z,20.44
2023-03-26T12:47:56.195Z,20.53
2023-03-26T12:49:34.635Z,20.62
2023-03-26T12:52:10.771Z,20.90
2023-03-26T12:55:01.056Z,21.09
2023-03-26T12:57:35.426Z,21.08
2023-03-26T13:00:28.910Z,21.08
2023-03-26T13:03:17.069Z,21.16
2023-03-26T13:06:09.223Z,21.17
2023-03-26T13:08:52.234Z,21.27
2023-03-26T13:11:42.782Z,21.08
2023-03-26T13:14:26.307Z,21.08
2023-03-26T13:16:58.522Z,21.11
2023-03-26T13:19:45.556Z,21.16
2023-03-26T13:22:37.253Z,20.97
2023-03-26T13:25:22.071Z,20.88
2023-03-26T13:28:02.896Z,20.94
2023-03-26T13:30:34.393Z,20.84
2023-03-26T13:33:03.805Z,20.88
2023-03-26T13:35:46.435Z,20.84
2023-03-26T13:38:28.200Z,20.82
2023-03-26T13:41:09.649Z,20.72
2023-03-26T13:43:57.600Z,20.77
2023-03-26T13:46:41.296Z,20.74
2023-03-26T13:49:15.757Z,20.70
2023-03-26T13:52:02.866Z,20.71
2023-03-26T13:54:48.715Z,20.64
2023-03-26T13:57:25.904Z,20.66
2023-03-26T14:00:18.372Z,20.49
2023-03-26T14:02:57.038Z,20.20
2023-03-26T14:05:26.395Z,20.23
2023-03-26T14:08:04.457Z,20.23
2023-03-26T14:10:40.602Z,20.27
2023-03-26T14:13:33.136Z,20.37
2023-03-26T14:16:11.499Z,20.56
2023-03-26T14:18:52.315Z,20.66
2023-03-26T14:21:47.910Z,20.64
2023-03-26T14:24:23.365Z,20.66
2023-03-26T14:27:03.416Z,20.90
2023-03-26T14:29:37.968Z,21.01
2023-03-26T14:32:29.831Z,21.01
2023-03-26T14:35:28.396Z,20.95
2023-03-26T14:38:00.684Z,20.93
2023-03-26T14:40:31.377Z,20.92
2023-03-26T14:43:16.179Z,20.99
2023-03-26T14:46:04.637Z,21.10
2023-03-26T14:48:49.994Z,20.92
2023-03-26T14:51:49.611Z,20.92
2023-03-26T14:54:20.759Z,20.81
2023-03-26T14:57:33.129Z,20.78
2023-03-26T15:00:38.994Z,20.85
2023-03-26T15:03:40.972Z,20.86
2023-03-26T15:06:19.708Z,20.91
2023-03-26T15:09:07.508Z,20.90
2023-03-26T15:11:51.677Z,20.77
2023-03-26T15:14:30.132Z,20.66
2023-03-26T15:17:18.237Z,20.49
2023-03-26T15:19:54.089Z,20.42
2023-03-26T15:22:39.566Z,20.32
2023-03-26T15:25:30.923Z,20.24
2023-03-26T15:28:22.331Z,20.26
2023-03-26T15:30:57.984Z,20.13
2023-03-26T15:33:56.865Z,20.14
2023-03-26T15:36:29.302Z,20.09
2023-03-26T15:39:33.083Z,19.97
2023-03-26T15:42:19.543Z,19.95
2023-03-26T15:45:30.362Z,19.82
2023-03-26T15:48:01.328Z,19.60
2023-03-26T15:50:55.988Z,19.46
2023-03-26T15:53:38.810Z,19.35
2023-03-26T15:56:40.362Z,19.31
2023-03-26T15:59:16.561Z,19.25
2023-03-26T16:02:16.287Z,19.17
2023-03-26T16:04:50.409Z,19.06
2023-03-26T16:07:21.909Z,18.85
2023-03-26T16:10:07.159Z,18.68
2023-03-26T16:12:38.118Z,18.54
2023-03-26T16:15:07.628Z,18.44
2023-03-26T16:18:05.298Z,18.35
2023-03-26T16:20:51.001Z,18.20
2023-03-26T16:23:55.370Z,18.14
2023-03-26T16:26:43.673Z,18.07
2023-03-26T16:29:22.326Z,17.99
2023-03-26T16:32:28.772Z,17.90
2023-03-26T16:34:58.193Z,17.77
2023-03-26T16:37:37.544Z,17.63
2023-03-26T16:40:34.569Z,17.42
2023-03-26T16:43:10.099Z,17.23
2023-03-26T16:46:01.348Z,17.10
2023-03-26T16:48:53.932Z,16.95
2023-03-26T16:51:42.309Z,16.80
2023-03-26T16:54:41.292Z,16.64
2023-03-26T16:57:10.997Z,16.47
2023-03-26T17:00:16.660Z,16.29
2023-03-26T17:03:01.409Z,16.12
2023-03-26T17:06:02.069Z,15.94
2023-03-26T17:08:35.449Z,15.78
2023-03-26T17:11:23.812Z,15.63
2023-03-26T17:14:14.162Z,15.45
2023-03-26T17:17:05.773Z,15.38
2023-03-26T17:19:35.470Z,15.24
2023-03-26T17:22:11.135Z,14.96
2023-03-26T17:24:54.096Z,14.80
2023-03-26T17:27:34.242Z,14.61
2023-03-26T17:30:38.787Z,14.45
2023-03-26T17:33:06.044Z,14.35
2023-03-26T17:35:46.207Z,14.34
2023-03-26T17:38:15.568Z,14.40
2023-03-26T17:40:58.523Z,14.43
2023-03-26T17:43:51.938Z,14.48
2023-03-26T17:46:41.700Z,14.49
2023-03-26T17:49:28.946Z,14.45
2023-03-26T17:52:10.839Z,14.29
2023-03-26T17:54:52.855Z,14.30
2023-03-26T17:57:34.654Z,14.24
2023-03-26T18:00:02.582Z,14.27
2023-03-26T18:02:42.360Z,14.23
2023-03-26T18:05:12.556Z,14.08
2023-03-26T18:07:51.632Z,14.04
2023-03-26T18:10:18.265Z,13.96
2023-03-26T18:13:20.178Z,13.66
2023-03-26T18:15:49.742Z,13.55
2023-03-26T18:18:36.840Z,13.47
2023-03-26T18:21:07.143Z,13.39
2023-03-26T18:23:41.197Z,13.35
2023-03-26T18:26:22.741Z,13.14
2023-03-26T18:28:53.088Z,13.35
2023-03-26T18:31:24.155Z,13.43
2023-03-26T18:33:55.932Z,13.35
2023-03-26T18:36:25.819Z,13.16
2023-03-26T18:38:58.324Z,13.06
2023-03-26T18:41:31.366Z,12.96
2023-03-26T18:44:02.773Z,13.02
2023-03-26T18:46:29.715Z,13.14
2023-03-26T18:48:56.985Z,13.20
2023-03-26T18:51:26.621Z,13.20
2023-03-26T18:53:57.104Z,13.18
2023-03-26T18:56:28.616Z,13.15
2023-03-26T18:58:58.007Z,13.15
2023-03-26T19:01:30.714Z,13.05
2023-03-26T19:04:04.915Z,12.92
2023-03-26T19:06:38.468Z,12.72
2023-03-26T19:09:19.560Z,12.48
2023-03-26T19:11:58.676Z,12.47
2023-03-26T19:14:27.607Z,12.39
2023-03-26T19:17:01.087Z,12.26
2023-03-26T19:19:37.053Z,12.28
2023-03-26T19:22:09.476Z,12.44
2023-03-26T19:24:36.398Z,12.51
2023-03-26T19:27:04.066Z,12.45
2023-03-26T19:29:35.682Z,12.24
2023-03-26T19:32:32.363Z,12.14
2023-03-26T19:34:59.663Z,12.06
2023-03-26T19:37:29.773Z,12.09
2023-03-26T19:40:22.724Z,12.13
2023-03-26T19:42:50.757Z,12.11
2023-03-26T19:45:23.093Z,12.11
2023-03-26T19:48:03.580Z,12.16
2023-03-26T19:50:37.147Z,12.12
2023-03-26T19:53:19.157Z,12.06
2023-03-26T19:56:05.248Z,11.90
2023-03-26T19:58:32.911Z,11.81
2023-03-26T20:00:59.885Z,11.68
2023-03-26T20:03:40.957Z,11.66
2023-03-26T20:06:15.521Z,11.57
2023-03-26T20:08:42.827Z,11.56
2023-03-26T20:11:20.608Z,11.63
2023-03-26T20:13:47.820Z,11.62
2023-03-26T20:16:23.010Z,11.61
2023-03-26T20:18:50.788Z,11.55
2023-03-26T20:21:17.412Z,11.53
2023-03-26T20:23:44.742Z,11.46
2023-03-26T20:26:16.342Z,11.46
2023-03-26T20:28:48.037Z,11.37
2023-03-26T20:31:25.211Z,11.31
2023-03-26T20:33:54.001Z,11.09
2023-03-26T20:36:34.375Z,11.20
2023-03-26T20:39:06.009Z,11.14
2023-03-26T20:41:33.713Z,11.03
2023-03-26T20:44:00.500Z,10.89
2023-03-26T20:46:31.309Z,10.71
2023-03-26T20:48:59.600Z,10.64
2023-03-26T20:51:28.500Z,10.63
2023-03-26T20:53:56.327Z,10.72
2023-03-26T20:56:23.465Z,10.72
2023-03-26T20:59:03.702Z,10.60
2023-03-26T21:01:37.789Z,10.44
2023-03-26T21:04:04.581Z,10.36
2023-03-26T21:06:31.288Z,10.38
2023-03-26T21:08:58.191Z,10.35
2023-03-26T21:11:52.374Z,10.32
2023-03-26T21:14:23.064Z,10.26
2023-03-26T21:16:50.147Z,10.17
2023-03-26T21:19:17.160Z,10.10
2023-03-26T21:21:52.922Z,10.01
2023-03-26T21:24:44.182Z,9.97
2023-03-26T21:27:55.485Z,9.94
2023-03-26T21:30:22.255Z,9.82
2023-03-26T21:32:49.017Z,9.74
2023-03-26T21:35:16.805Z,9.65
2023-03-26T21:37:45.648Z,9.69
2023-03-26T21:40:19.518Z,9.70
2023-03-26T21:42:49.177Z,9.64
2023-03-26T21:45:17.356Z,9.61
2023-03-26T21:47:45.626Z,9.60
2023-03-26T21:50:15.127Z,9.57
2023-03-26T21:52:47.044Z,9.56
2023-03-26T21:55:22.059Z,9.50
2023-03-26T21:58:07.447Z,9.52
2023-03-26T22:01:12.997Z,9.61
2023-03-26T22:03:56.054Z,9.61
2023-03-26T22:06:31.775Z,9.62
2023-03-26T22:08:59.569Z,9.63
2023-03-26T22:11:26.180Z,9.66
2023-03-26T22:13:53.285Z,9.72
2023-03-26T22:16:25.179Z,9.81
2023-03-26T22:18:53.494Z,9.81
2023-03-26T22:21:20.479Z,9.84
2023-03-26T22:23:52.742Z,9.90
2023-03-26T22:26:23.915Z,9.97
2023-03-26T22:28:51.271Z,9.97
2023-03-26T22:31:18.172Z,9.95
2023-03-26T22:33:44.841Z,9.66
2023-03-26T22:36:23.394Z,9.56
2023-03-26T22:38:53.614Z,9.44
2023-03-26T22:41:20.740Z,9.35
2023-03-26T22:43:47.276Z,9.35
2023-03-26T22:46:14.371Z,9.28
2023-03-26T22:48:40.971Z,9.26
2023-03-26T22:51:10.295Z,9.14
2023-03-26T22:53:37.295Z,9.06
2023-03-26T22:56:04.332Z,8.85
2023-03-26T22:58:32.694Z,8.82
2023-03-26T23:01:16.896Z,8.77
2023-03-26T23:03:43.934Z,8.66
2023-03-26T23:06:12.189Z,8.65
2023-03-26T23:08:39.831Z,8.62
2023-03-26T23:11:10.954Z,8.62
2023-03-26T23:13:37.539Z,8.59
2023-03-26T23:16:04.694Z,8.52
2023-03-26T23:18:31.601Z,8.63
2023-03-26T23:20:58.594Z,8.53
2023-03-26T23:23:33.635Z,8.44
2023-03-26T23:26:03.393Z,8.40
2023-03-26T23:28:34.667Z,8.33
2023-03-26T23:31:04.391Z,8.32
2023-03-26T23:33:35.305Z,8.39
2023-03-26T23:36:08.861Z,8.46
2023-03-26T23:38:43.994Z,8.56
2023-03-26T23:41:15.287Z,8.67
2023-03-26T23:43:54.850Z,8.69
2023-03-26T23:46:30.297Z,8.83
2023-03-26T23:49:00.024Z,8.83
2023-03-26T23:51:26.839Z,8.90
2023-03-26T23:53:53.888Z,8.98
2023-03-26T23:56:21.117Z,8.92
2023-03-26T23:58:48.953Z,8.86
